Aurora, NY

3:45 PM EDT on September 16, 2014 (GMT -0400)
Elmira-Corning Regional | Change Station
CLOSE
Current Station
Airport
Location: Elmira,
Elevation: 951 ft
Nearby Weather Stations

Elev 951 ft 42.16 °N, 76.89 °W | Updated 52 minutes ago

Mostly Cloudy
Mostly Cloudy
65 °F
Feels Like 65 °F
N
9
Wind Variable Wind from NW

Today
High -- | Low -- °F
--% Chance of Precip.
Yesterday
High -- | Low -- °F
Precip. -- in
6:47 AM 7:14 PM
Last Quarter, 43% visible
Pressure 30.03 in
Visibility 10.0 miles
Clouds Mostly Cloudy 6500 ft
Dew Point 50 °F
Humidity 58%
Rainfall 0.27 in
Snow Depth Not available.
UV 3 out of 12
Pollen .50 out of 12
PM2.5 Good
Flu Activity Not available.
METAR KELM 161853Z 32008KT 10SM BKN065 18/10 A3003 RMK AO2 SLP168 T01830100

More Conditions Fewer Conditions

Pressure 30.03 in
Visibility 10.0 miles
Clouds Mostly Cloudy 6500 ft
Dew Point 50 °F
Humidity 58%
Rainfall 0.27 in
Snow Depth Not available.
UV 3 out of 12
Pollen .50 out of 12
PM2.5 Good
Flu Activity Not available.
METAR KELM 161853Z 32008KT 10SM BKN065 18/10 A3003 RMK AO2 SLP168 T01830100

More Conditions Fewer Conditions

10-Day Weather Forecast

Almanac

Astronomy

Sep. 16, 2014 Rise Set
Actual Time 6:47 AM EDT 7:14 PM EDT
Civil Twilight 6:19 AM EDT 7:42 PM EDT
Nautical Twilight 5:45 AM EDT 8:16 PM EDT
Astronomical Twilight 5:11 AM EDT 8:50 PM EDT
Moon No Moon Rise 2:42 PM EDT
Length of Visible Light 13h 23m
Length of Day
12h 27m
Tomorrow will be 2m 52s shorter.
Last Quarter, 43% of the Moon is Illuminated
Today
Last Quarter
Sep 24
New
Oct 1
First Quarter
Oct 8
Full
Oct 15
Last Quarter

Today's Extremes

State Highs State Lows

Community

WunderPhotos

Upload Photos

1,753,860 photos uploaded!

Nearby

Air Quality

  Air Quality AQ Index Pollutant
Yesterday Good
OZONE
Yesterday Good
PM2.5
Current Good
PM2.5
Tuesday Good
OZONE
Tuesday Good
PM2.5
Wednesday Good
PM2.5
Wednesday Good
OZONE

Snow Depth

Station Depth Elevation
No new snow has been reported.

Earthquake Activity

City Distance Mag. Time & Date
No recent earthquake activity has been reported nearby.
Minimum magnitude displayed is 2.5.

Coastal Water Temperatures

Place Temperature
No Stations Reporting

Nearby Weather Stations